createdAt,value
2018-10-18T00:02:06.748Z,35.20
2018-10-18T00:07:09.074Z,34.25
2018-10-18T00:12:11.475Z,36.03
2018-10-18T00:17:19.560Z,35.48
2018-10-18T00:22:21.924Z,34.75
2018-10-18T00:27:24.226Z,38.28
2018-10-18T00:32:26.516Z,34.03
2018-10-18T00:37:29.108Z,35.73
2018-10-18T00:42:31.439Z,37.75
2018-10-18T00:47:33.815Z,34.25
2018-10-18T00:52:36.136Z,35.08
2018-10-18T00:57:39.070Z,35.63
2018-10-18T01:02:41.397Z,33.42
2018-10-18T01:07:43.759Z,33.53
2018-10-18T01:12:46.177Z,34.05
2018-10-18T01:17:48.443Z,37.95
2018-10-18T01:22:50.813Z,38.33
2018-10-18T01:27:53.163Z,32.13
2018-10-18T01:32:55.456Z,31.80
2018-10-18T01:37:57.956Z,31.87
2018-10-18T01:43:00.380Z,35.08
2018-10-18T01:48:02.737Z,34.15
2018-10-18T01:53:05.531Z,35.35
2018-10-18T01:58:07.934Z,37.23
2018-10-18T02:03:10.219Z,39.85
2018-10-18T02:08:12.691Z,51.85
2018-10-18T02:13:14.969Z,44.00
2018-10-18T02:18:17.372Z,44.10
2018-10-18T02:23:19.757Z,46.95
2018-10-18T02:28:22.099Z,46.20
2018-10-18T02:33:24.388Z,41.28
2018-10-18T02:38:26.981Z,37.13
2018-10-18T02:43:29.282Z,36.90
2018-10-18T02:48:31.596Z,37.48
2018-10-18T02:53:34.094Z,38.83
2018-10-18T02:58:36.481Z,32.50
2018-10-18T03:03:38.803Z,34.27
2018-10-18T03:08:41.188Z,32.88
2018-10-18T03:13:43.500Z,33.35
2018-10-18T03:18:45.841Z,37.08
2018-10-18T03:23:48.233Z,38.70
2018-10-18T03:28:50.662Z,43.02
2018-10-18T03:33:52.927Z,40.12
2018-10-18T03:38:55.501Z,34.92
2018-10-18T03:43:57.873Z,32.65
2018-10-18T03:49:01.869Z,37.35
2018-10-18T03:54:06.481Z,36.90
2018-10-18T03:59:10.625Z,37.23
2018-10-18T04:04:14.596Z,34.50
2018-10-18T04:09:18.677Z,36.45
2018-10-18T04:14:22.652Z,33.73
2018-10-18T04:19:26.648Z,36.80
2018-10-18T04:24:30.736Z,37.60
2018-10-18T04:29:34.931Z,37.03
2018-10-18T04:34:39.395Z,38.67
2018-10-18T04:39:43.521Z,42.33
2018-10-18T04:44:47.509Z,40.88
2018-10-18T04:49:51.562Z,43.60
2018-10-18T04:54:55.564Z,38.02
2018-10-18T05:00:00.028Z,35.40
2018-10-18T05:05:15.278Z,36.63
2018-10-18T05:10:19.289Z,38.30
2018-10-18T05:15:23.334Z,34.25
2018-10-18T05:20:27.409Z,33.05
2018-10-18T05:25:32.281Z,30.77
2018-10-18T05:30:36.259Z,34.15
2018-10-18T05:35:40.229Z,34.65
2018-10-18T05:40:44.403Z,34.20
2018-10-18T05:45:48.373Z,32.13
2018-10-18T05:50:52.340Z,34.27
2018-10-18T05:55:56.297Z,33.35
2018-10-18T06:01:00.385Z,34.05
2018-10-18T06:06:04.488Z,34.10
2018-10-18T06:11:22.921Z,33.28
2018-10-18T06:16:28.005Z,36.35
2018-10-18T06:21:31.958Z,31.93
2018-10-18T06:26:36.612Z,33.58
2018-10-18T06:31:40.877Z,34.60
2018-10-18T06:36:44.866Z,35.33
2018-10-18T06:41:48.857Z,35.73
2018-10-18T06:46:52.953Z,37.75
2018-10-18T06:51:56.897Z,37.00
2018-10-18T06:57:00.873Z,34.73
2018-10-18T07:02:05.010Z,36.75
2018-10-18T07:07:09.006Z,34.88
2018-10-18T07:12:13.155Z,36.00
2018-10-18T07:17:17.069Z,36.73
2018-10-18T07:22:21.198Z,36.68
2018-10-18T07:27:25.151Z,37.25
2018-10-18T07:32:29.133Z,41.68
2018-10-18T07:37:33.095Z,42.45
2018-10-18T07:42:37.070Z,40.10
2018-10-18T07:47:41.310Z,38.00
2018-10-18T07:52:45.259Z,38.35
2018-10-18T07:57:49.231Z,37.75
2018-10-18T08:02:53.188Z,37.50
2018-10-18T08:07:57.844Z,37.78
2018-10-18T08:13:01.865Z,38.90
2018-10-18T08:18:06.121Z,36.73
2018-10-18T08:23:10.249Z,38.73
2018-10-18T08:28:14.190Z,40.67
2018-10-18T08:33:18.183Z,39.73
2018-10-18T08:38:22.975Z,42.25
2018-10-18T08:43:26.956Z,39.70
2018-10-18T08:48:31.788Z,41.75
2018-10-18T08:53:35.777Z,42.62
2018-10-18T08:58:39.763Z,41.20
2018-10-18T09:03:43.755Z,41.15
2018-10-18T09:08:47.729Z,38.80
2018-10-18T09:13:51.724Z,39.27
2018-10-18T09:18:55.721Z,43.23
2018-10-18T09:23:59.748Z,43.33
2018-10-18T09:29:03.809Z,41.98
2018-10-18T09:34:07.781Z,41.65
2018-10-18T09:39:11.771Z,43.15
2018-10-18T09:44:15.962Z,42.78
2018-10-18T09:49:19.858Z,43.42
2018-10-18T09:54:23.816Z,42.00
2018-10-18T09:59:28.235Z,43.73
2018-10-18T10:04:32.205Z,43.10
2018-10-18T10:09:36.395Z,42.83
2018-10-18T10:14:40.568Z,40.73
2018-10-18T10:19:44.828Z,40.88
2018-10-18T10:24:48.908Z,39.90
2018-10-18T10:29:52.940Z,40.95
2018-10-18T10:34:57.102Z,42.08
2018-10-18T10:40:01.166Z,40.00
2018-10-18T10:45:06.142Z,39.58
2018-10-18T10:50:10.654Z,41.13
2018-10-18T10:55:14.721Z,42.10
2018-10-18T11:01:13.811Z,40.75
2018-10-18T11:06:17.996Z,40.63
2018-10-18T11:11:22.503Z,39.42
2018-10-18T11:16:26.492Z,40.90
2018-10-18T11:21:30.514Z,39.38
2018-10-18T11:26:34.572Z,42.55
2018-10-18T11:31:38.542Z,43.83
2018-10-18T11:36:42.510Z,44.48
2018-10-18T11:41:46.490Z,43.28
2018-10-18T11:46:50.495Z,44.03
2018-10-18T11:51:54.563Z,46.70
2018-10-18T11:56:58.476Z,46.95
2018-10-18T12:02:02.478Z,46.63
2018-10-18T12:07:06.459Z,47.20
2018-10-18T12:12:10.437Z,47.45
2018-10-18T12:17:14.522Z,52.35
2018-10-18T12:22:18.467Z,54.05
2018-10-18T12:27:22.456Z,53.60
2018-10-18T12:32:27.025Z,54.20
2018-10-18T12:37:30.994Z,51.90
2018-10-18T12:42:36.023Z,51.23
2018-10-18T12:47:40.102Z,49.80
2018-10-18T12:52:44.085Z,50.60
2018-10-18T12:57:48.123Z,49.05
2018-10-18T13:02:52.099Z,48.42
2018-10-18T13:07:56.108Z,49.65
2018-10-18T13:13:00.178Z,47.10
2018-10-18T13:18:04.381Z,43.92
2018-10-18T13:23:08.699Z,48.50
2018-10-18T13:28:12.675Z,40.15
2018-10-18T13:33:16.652Z,39.00
2018-10-18T13:38:20.625Z,37.88
2018-10-18T13:43:24.634Z,40.05
2018-10-18T13:48:28.597Z,43.17
2018-10-18T13:53:36.545Z,44.30
2018-10-18T13:58:41.120Z,42.08
2018-10-18T14:03:45.090Z,39.83
2018-10-18T14:08:49.067Z,39.08
2018-10-18T14:13:53.152Z,37.93
2018-10-18T14:18:57.105Z,36.68
2018-10-18T14:24:01.371Z,36.23
2018-10-18T14:29:05.433Z,34.65
2018-10-18T14:34:09.957Z,33.60
2018-10-18T14:39:14.967Z,32.20
2018-10-18T14:44:19.272Z,32.38
2018-10-18T14:49:24.308Z,31.50
2018-10-18T14:54:28.307Z,32.78
2018-10-18T14:59:32.340Z,32.65
2018-10-18T15:04:36.827Z,33.05
2018-10-18T15:09:40.849Z,30.32
2018-10-18T15:14:44.965Z,30.60
2018-10-18T15:19:49.254Z,30.35
2018-10-18T15:24:53.305Z,29.55
2018-10-18T15:29:57.277Z,32.05
2018-10-18T15:35:01.324Z,34.08
2018-10-18T15:40:05.840Z,37.15
2018-10-18T15:45:10.525Z,35.58
2018-10-18T15:50:14.589Z,34.73
2018-10-18T15:55:18.587Z,35.83
2018-10-18T16:00:22.736Z,34.38
2018-10-18T16:05:26.877Z,30.77
2018-10-18T16:10:31.066Z,29.98
2018-10-18T16:15:35.274Z,30.95
2018-10-18T16:20:39.836Z,28.27
2018-10-18T16:25:44.092Z,30.00
2018-10-18T16:30:48.378Z,29.52
2018-10-18T16:35:52.572Z,28.95
2018-10-18T16:40:56.602Z,28.65
2018-10-18T16:46:00.676Z,30.92
2018-10-18T16:51:04.956Z,29.55
2018-10-18T16:56:08.990Z,29.30
2018-10-18T17:01:12.996Z,28.67
2018-10-18T17:06:16.986Z,28.60
2018-10-18T17:11:21.082Z,29.40
2018-10-18T17:16:25.179Z,29.23
2018-10-18T17:21:29.307Z,30.17
2018-10-18T17:26:33.529Z,30.25
2018-10-18T17:31:38.188Z,29.82
2018-10-18T17:36:42.226Z,28.77
2018-10-18T17:41:47.484Z,29.50
2018-10-18T17:46:51.900Z,31.27
2018-10-18T17:51:55.993Z,31.77
2018-10-18T17:57:00.908Z,29.20
2018-10-18T18:02:05.105Z,32.42
2018-10-18T18:07:09.771Z,32.20
2018-10-18T18:12:13.800Z,31.55
2018-10-18T18:17:17.789Z,31.82
2018-10-18T18:22:21.871Z,33.38
2018-10-18T18:27:25.954Z,31.57
2018-10-18T18:32:29.991Z,30.80
2018-10-18T18:37:34.108Z,32.60
2018-10-18T18:42:38.662Z,35.00
2018-10-18T18:47:42.789Z,33.67
2018-10-18T18:52:46.824Z,33.25
2018-10-18T18:57:50.828Z,32.03
2018-10-18T19:02:54.856Z,33.67
2018-10-18T19:07:58.837Z,32.95
2018-10-18T19:13:02.962Z,33.90
2018-10-18T19:18:07.068Z,34.73
2018-10-18T19:23:11.304Z,34.10
2018-10-18T19:28:15.659Z,33.18
2018-10-18T19:33:19.774Z,34.80
2018-10-18T19:38:23.786Z,34.53
2018-10-18T19:43:27.817Z,32.55
2018-10-18T19:48:32.083Z,32.93
2018-10-18T19:53:36.061Z,31.97
2018-10-18T19:58:40.150Z,33.08
2018-10-18T20:03:44.340Z,32.53
2018-10-18T20:08:48.666Z,33.58
2018-10-18T20:13:52.707Z,34.43
2018-10-18T20:18:56.669Z,35.48
2018-10-18T20:24:00.765Z,34.92
2018-10-18T20:29:04.881Z,34.38
2018-10-18T20:34:08.877Z,32.88
2018-10-18T20:39:12.949Z,33.05
2018-10-18T20:44:16.872Z,33.08
2018-10-18T20:49:20.849Z,30.37
2018-10-18T20:54:24.910Z,31.45
2018-10-18T20:59:29.927Z,31.42
2018-10-18T21:04:33.974Z,31.52
2018-10-18T21:09:37.951Z,30.45
2018-10-18T21:14:41.935Z,29.75
2018-10-18T21:19:45.972Z,29.05
2018-10-18T21:24:49.977Z,28.40
2018-10-18T21:29:53.986Z,27.05
2018-10-18T21:34:58.088Z,26.48
2018-10-18T21:40:02.160Z,26.15
2018-10-18T21:45:06.304Z,25.12
2018-10-18T21:50:10.255Z,25.12
2018-10-18T21:55:14.235Z,26.33
2018-10-18T22:00:18.417Z,26.65
2018-10-18T22:05:22.385Z,25.57
2018-10-18T22:10:26.457Z,24.52
2018-10-18T22:15:30.469Z,23.40
2018-10-18T22:20:34.463Z,24.87
2018-10-18T22:25:38.520Z,24.50
2018-10-18T22:30:42.529Z,25.17
2018-10-18T22:35:46.569Z,24.20
2018-10-18T22:40:50.631Z,22.87
2018-10-18T22:46:00.047Z,23.02
2018-10-18T22:51:04.114Z,22.67
2018-10-18T22:56:08.053Z,21.80
2018-10-18T23:01:12.184Z,21.73
2018-10-18T23:06:16.150Z,20.97
2018-10-18T23:11:20.107Z,20.35
2018-10-18T23:16:24.083Z,22.27
2018-10-18T23:21:28.127Z,22.07
2018-10-18T23:26:32.188Z,20.62
2018-10-18T23:31:36.166Z,21.48
2018-10-18T23:36:40.151Z,20.77
2018-10-18T23:41:44.166Z,20.20
2018-10-18T23:46:48.265Z,20.82
2018-10-18T23:51:52.228Z,20.23
2018-10-18T23:56:56.255Z,21.40
